Time;durP1;ratioP1;P1;durP2;ratioP2;P2;SDS_P1;SDS_P2;PMS_P1;PMS_P2;Temp;Humidity;BMP_temperature;BMP_pressure;BME280_temperature;BME280_humidity;BME280_pressure;Samples;Min_cycle;Max_cycle;Signal;HPM_P1;HPM_P2
2023/05/31 00:02:19;;;;;;;71.37;10.13;;;18.10;1.00;;;;;;4888515;29;20187;-85
2023/05/31 00:04:45;;;;;;;71.20;9.33;;;18.10;1.00;;;;;;4888770;29;20428;-86
2023/05/31 00:07:11;;;;;;;71.60;9.40;;;18.00;1.00;;;;;;4890135;29;20198;-86
2023/05/31 00:09:37;;;;;;;70.47;9.10;;;17.90;1.00;;;;;;4889262;29;20166;-85
2023/05/31 00:12:02;;;;;;;72.53;9.20;;;17.90;1.00;;;;;;4889258;29;20164;-85
2023/05/31 00:14:28;;;;;;;70.47;9.53;;;17.90;1.00;;;;;;4888925;29;20639;-85
2023/05/31 00:16:54;;;;;;;71.17;9.53;;;17.90;1.00;;;;;;4889509;29;20186;-85
2023/05/31 00:19:19;;;;;;;73.33;9.43;;;17.80;1.00;;;;;;4887793;29;20179;-85
2023/05/31 00:21:46;;;;;;;71.17;9.67;;;17.60;1.00;;;;;;4888884;29;20245;-85
2023/05/31 00:24:12;;;;;;;72.37;9.17;;;17.60;1.00;;;;;;4888494;29;20174;-85
2023/05/31 00:26:38;;;;;;;70.90;8.90;;;17.60;1.00;;;;;;4887949;29;20431;-85
2023/05/31 00:29:04;;;;;;;72.00;9.33;;;17.70;1.00;;;;;;4888627;29;20411;-85
2023/05/31 00:31:36;;;;;;;71.37;9.67;;;17.70;1.00;;;;;;4888981;29;20411;-85
2023/05/31 00:34:02;;;;;;;71.80;8.90;;;17.60;1.00;;;;;;4888854;29;20396;-85
2023/05/31 00:36:27;;;;;;;73.20;9.30;;;17.60;1.00;;;;;;4886721;29;20462;-85
2023/05/31 00:38:53;;;;;;;70.87;9.40;;;17.60;1.00;;;;;;4889175;29;20171;-85
2023/05/31 00:42:39;;;;;;;71.13;9.27;;;17.60;1.00;;;;;;4887700;29;20210;-85
2023/05/31 00:44:45;;;;;;;73.53;10.30;;;17.50;1.00;;;;;;4880125;29;20178;-85
2023/05/31 00:47:11;;;;;;;69.93;8.53;;;17.50;1.00;;;;;;4886047;29;20455;-85
2023/05/31 00:49:37;;;;;;;72.30;8.83;;;17.40;1.00;;;;;;4887793;29;20246;-85
2023/05/31 00:52:04;;;;;;;70.83;8.77;;;17.50;1.00;;;;;;4887780;29;20584;-85
2023/05/31 00:54:30;;;;;;;70.47;8.20;;;17.50;1.00;;;;;;4885803;29;20271;-85
2023/05/31 00:56:56;;;;;;;74.37;9.43;;;17.40;1.00;;;;;;4887275;29;20905;-85
2023/05/31 00:59:21;;;;;;;75.10;10.40;;;17.30;1.00;;;;;;4886372;29;20174;-85
2023/05/31 01:01:47;;;;;;;70.93;8.67;;;17.30;1.00;;;;;;4885801;29;20227;-85
2023/05/31 01:04:13;;;;;;;70.67;9.60;;;17.30;1.00;;;;;;4886831;29;20158;-85
2023/05/31 01:06:39;;;;;;;71.33;9.10;;;17.20;1.00;;;;;;4884797;29;20195;-85
2023/05/31 01:09:07;;;;;;;72.30;8.47;;;17.20;1.00;;;;;;4886029;29;20711;-85
2023/05/31 01:11:51;;;;;;;74.57;9.70;;;17.20;1.00;;;;;;4885826;29;20183;-85
2023/05/31 01:14:25;;;;;;;71.47;9.27;;;17.10;1.00;;;;;;4888170;29;20404;-85
2023/05/31 01:17:13;;;;;;;76.97;9.90;;;17.10;1.00;;;;;;4891185;29;20521;-85
2023/05/31 01:19:47;;;;;;;69.47;8.70;;;17.00;2.00;;;;;;4863791;29;20483;-85
2023/05/31 01:22:19;;;;;;;71.60;9.10;;;16.90;1.90;;;;;;4893890;29;20467;-85
2023/05/31 01:25:21;;;;;;;71.90;8.67;;;16.90;1.50;;;;;;4891982;29;20411;-85
2023/05/31 01:28:05;;;;;;;72.87;9.27;;;16.90;1.50;;;;;;4892735;29;20434;-85
2023/05/31 01:30:32;;;;;;;76.77;10.73;;;16.90;2.40;;;;;;4891934;29;20516;-85
2023/05/31 01:38:36;;;;;;;73.93;9.80;;;16.70;3.10;;;;;;4943607;23;20919;-85
2023/05/31 01:41:06;;;;;;;70.40;8.83;;;16.70;5.40;;;;;;4892418;29;20962;-85
2023/05/31 01:43:33;;;;;;;74.50;9.70;;;16.60;5.10;;;;;;4892703;29;20387;-85
2023/05/31 01:46:00;;;;;;;73.20;10.37;;;16.60;5.50;;;;;;4891068;29;20426;-85
2023/05/31 01:48:26;;;;;;;73.13;10.07;;;16.60;4.80;;;;;;4893441;29;20918;-85
2023/05/31 01:50:53;;;;;;;71.77;9.47;;;16.60;5.10;;;;;;4892428;29;20439;-85
2023/05/31 01:53:19;;;;;;;73.50;9.87;;;16.60;5.20;;;;;;4891891;29;20411;-85
2023/05/31 01:55:46;;;;;;;73.03;9.57;;;16.60;5.50;;;;;;4891595;29;20425;-85
2023/05/31 01:58:13;;;;;;;71.67;9.07;;;16.50;5.50;;;;;;4891877;29;20255;-85
2023/05/31 02:00:40;;;;;;;70.87;9.67;;;16.50;6.30;;;;;;4892000;29;20450;-85
2023/05/31 02:03:06;;;;;;;72.07;9.60;;;16.50;6.10;;;;;;4891336;29;20775;-85
2023/05/31 02:05:32;;;;;;;73.40;10.07;;;16.50;5.60;;;;;;4890580;29;20427;-85
2023/05/31 02:07:58;;;;;;;73.40;10.47;;;16.50;6.00;;;;;;4890525;29;20427;-85
2023/05/31 02:10:23;;;;;;;76.23;9.90;;;16.40;6.50;;;;;;4891553;29;20250;-85
2023/05/31 02:12:50;;;;;;;69.60;8.97;;;16.40;6.10;;;;;;4891604;29;20693;-85
2023/05/31 02:15:19;;;;;;;76.83;9.10;;;16.30;6.80;;;;;;4890784;29;20245;-85
2023/05/31 02:17:46;;;;;;;71.90;9.80;;;16.30;6.40;;;;;;4891560;29;20427;-85
2023/05/31 02:20:14;;;;;;;75.30;10.40;;;16.30;7.00;;;;;;4891484;29;20461;-85
2023/05/31 02:22:40;;;;;;;71.00;9.80;;;16.30;8.30;;;;;;4890000;29;20914;-85
2023/05/31 02:25:08;;;;;;;71.50;10.50;;;16.20;10.30;;;;;;4890629;29;20415;-85
2023/05/31 02:27:34;;;;;;;72.60;10.27;;;16.10;12.60;;;;;;4888944;29;20458;-85
2023/05/31 02:30:00;;;;;;;74.70;11.77;;;16.20;11.70;;;;;;4886618;29;20479;-85
2023/05/31 02:32:26;;;;;;;78.70;12.20;;;16.10;13.00;;;;;;4889331;29;20173;-85
2023/05/31 02:34:51;;;;;;;72.33;10.80;;;16.00;14.20;;;;;;4886348;29;20265;-85
2023/05/31 02:37:18;;;;;;;76.40;13.10;;;16.00;13.40;;;;;;4888001;29;20499;-85
2023/05/31 02:39:44;;;;;;;73.83;11.80;;;16.00;14.70;;;;;;4887774;29;20178;-85
2023/05/31 02:42:09;;;;;;;72.80;11.10;;;16.00;15.20;;;;;;4888180;29;20482;-85
2023/05/31 02:44:35;;;;;;;72.70;11.40;;;16.00;12.90;;;;;;4887999;29;20411;-85
2023/05/31 02:47:01;;;;;;;72.20;11.97;;;16.00;11.90;;;;;;4890172;29;20210;-85
2023/05/31 02:49:28;;;;;;;73.10;12.47;;;15.90;13.50;;;;;;4888112;29;20198;-85
2023/05/31 02:51:53;;;;;;;74.10;12.43;;;15.90;14.50;;;;;;4888078;29;20455;-85
2023/05/31 02:54:19;;;;;;;75.40;11.40;;;15.90;13.40;;;;;;4888125;29;20171;-85
2023/05/31 02:56:45;;;;;;;75.13;13.00;;;15.90;14.40;;;;;;4885984;29;20269;-85
2023/05/31 02:59:11;;;;;;;76.27;11.77;;;15.80;16.20;;;;;;4887643;29;20493;-85
2023/05/31 03:01:36;;;;;;;74.27;12.83;;;15.80;16.30;;;;;;4887521;29;20174;-85
2023/05/31 03:04:02;;;;;;;77.90;13.00;;;15.70;17.50;;;;;;4886594;29;20175;-85
2023/05/31 03:06:28;;;;;;;73.70;13.27;;;15.70;16.60;;;;;;4885917;29;20236;-85
2023/05/31 03:08:53;;;;;;;75.10;13.30;;;15.70;14.90;;;;;;4886679;29;20177;-85
2023/05/31 03:11:22;;;;;;;74.30;12.70;;;15.70;15.20;;;;;;4887219;29;20276;-85
2023/05/31 03:13:48;;;;;;;72.20;12.80;;;15.60;16.80;;;;;;4887314;29;20205;-85
2023/05/31 03:16:14;;;;;;;73.40;11.77;;;15.60;15.30;;;;;;4887054;29;20446;-85
2023/05/31 03:18:43;;;;;;;72.17;11.07;;;15.60;14.60;;;;;;4887031;29;20408;-85
2023/05/31 03:21:09;;;;;;;72.67;11.47;;;15.60;14.80;;;;;;4886969;29;20415;-85
2023/05/31 03:23:34;;;;;;;73.37;12.47;;;15.60;14.20;;;;;;4886972;29;20922;-85
2023/05/31 03:26:00;;;;;;;73.70;13.33;;;15.60;14.90;;;;;;4885407;29;20185;-85
2023/05/31 03:28:26;;;;;;;73.73;11.77;;;15.50;15.10;;;;;;4887573;29;20171;-85
2023/05/31 03:30:51;;;;;;;74.97;13.57;;;15.50;17.50;;;;;;4885241;29;20254;-85
2023/05/31 03:33:17;;;;;;;77.43;11.90;;;15.50;17.00;;;;;;4886239;29;20227;-85
2023/05/31 03:35:43;;;;;;;73.27;12.83;;;15.50;17.00;;;;;;4884831;29;20208;-85
2023/05/31 03:38:12;;;;;;;73.57;13.90;;;15.50;17.00;;;;;;4885754;29;20451;-85
2023/05/31 03:40:37;;;;;;;74.30;12.90;;;15.50;16.40;;;;;;4886642;29;20170;-85
2023/05/31 03:43:03;;;;;;;73.67;13.40;;;15.40;17.80;;;;;;4886108;29;20993;-85
2023/05/31 03:47:59;;;;;;;74.00;13.17;;;15.40;19.10;;;;;;4882262;29;20229;-80
2023/05/31 03:50:27;;;;;;;78.80;14.63;;;15.40;20.20;;;;;;4884033;29;20486;-80
2023/05/31 03:52:52;;;;;;;72.97;11.97;;;15.40;20.40;;;;;;4883509;29;20173;-80
2023/05/31 03:55:18;;;;;;;73.03;11.97;;;15.30;20.80;;;;;;4883228;29;20436;-80
2023/05/31 03:57:43;;;;;;;75.07;14.00;;;15.30;21.00;;;;;;4883161;29;20196;-80
2023/05/31 04:00:11;;;;;;;78.93;13.43;;;15.30;21.00;;;;;;4882966;29;20185;-80
2023/05/31 04:02:37;;;;;;;75.47;13.00;;;15.30;21.40;;;;;;4882973;29;20665;-80
2023/05/31 04:05:04;;;;;;;76.67;13.00;;;15.30;21.10;;;;;;4881654;29;20419;-80
2023/05/31 04:07:31;;;;;;;78.10;13.90;;;15.30;21.60;;;;;;4882160;29;20973;-80
2023/05/31 04:09:56;;;;;;;75.20;12.97;;;15.20;23.30;;;;;;4882346;29;20509;-80
2023/05/31 04:12:25;;;;;;;73.53;13.20;;;15.30;22.70;;;;;;4882919;29;20560;-80
2023/05/31 04:14:51;;;;;;;74.97;12.87;;;15.30;24.30;;;;;;4882846;29;20584;-80
2023/05/31 04:17:16;;;;;;;74.50;14.70;;;15.20;26.30;;;;;;4883061;29;20426;-80
2023/05/31 04:19:42;;;;;;;76.40;13.37;;;15.20;28.20;;;;;;4882799;29;20167;-80
2023/05/31 04:22:08;;;;;;;74.30;13.87;;;15.20;29.60;;;;;;4882382;29;20254;-80
2023/05/31 04:24:33;;;;;;;78.60;13.27;;;15.30;29.60;;;;;;4881293;29;20193;-80
2023/05/31 04:27:03;;;;;;;76.20;11.60;;;15.30;28.40;;;;;;4882914;29;20273;-80
2023/05/31 04:29:29;;;;;;;72.33;12.20;;;15.30;30.70;;;;;;4882756;29;20246;-80
2023/05/31 04:31:55;;;;;;;75.37;13.20;;;15.30;33.10;;;;;;4882484;29;20455;-80
2023/05/31 04:34:21;;;;;;;74.10;12.40;;;15.30;33.60;;;;;;4881288;29;20415;-80
2023/05/31 04:36:48;;;;;;;77.80;12.43;;;15.40;36.50;;;;;;4882903;29;20425;-81
2023/05/31 04:39:15;;;;;;;75.20;12.80;;;15.50;42.30;;;;;;4881128;29;20426;-80
2023/05/31 04:41:41;;;;;;;75.87;12.17;;;15.70;45.00;;;;;;4881115;29;20956;-81
2023/05/31 04:44:07;;;;;;;76.37;11.30;;;16.00;39.60;;;;;;4881144;29;20431;-81
2023/05/31 04:46:33;;;;;;;75.57;12.73;;;16.30;32.80;;;;;;4882406;29;20446;-80
2023/05/31 04:49:00;;;;;;;75.10;12.77;;;16.50;26.90;;;;;;4882563;29;20238;-80
2023/05/31 04:51:26;;;;;;;75.63;12.93;;;16.70;22.60;;;;;;4880304;29;20202;-81
2023/05/31 04:53:52;;;;;;;79.20;13.20;;;16.90;20.00;;;;;;4882349;29;20415;-81
2023/05/31 04:56:18;;;;;;;79.37;14.23;;;17.10;16.90;;;;;;4881036;29;20453;-80
2023/05/31 04:58:44;;;;;;;76.40;13.33;;;17.20;13.10;;;;;;4881318;29;20515;-81
2023/05/31 05:01:12;;;;;;;78.27;14.07;;;17.30;9.00;;;;;;4881011;29;20868;-80
2023/05/31 05:03:37;;;;;;;73.77;12.47;;;17.30;5.80;;;;;;4882248;29;20419;-81
2023/05/31 05:06:16;;;;;;;77.93;14.67;;;17.20;8.10;;;;;;4882519;29;20410;-81
2023/05/31 05:08:43;;;;;;;82.03;13.80;;;17.10;6.40;;;;;;4882301;29;20173;-81
2023/05/31 05:11:08;;;;;;;74.50;13.30;;;17.00;9.70;;;;;;4882087;29;20511;-81
2023/05/31 05:13:35;;;;;;;76.80;16.13;;;16.90;11.20;;;;;;4882250;29;20411;-81
2023/05/31 05:16:02;;;;;;;78.90;16.30;;;16.90;15.60;;;;;;4880911;29;20258;-80
2023/05/31 05:18:28;;;;;;;78.50;17.27;;;16.70;19.00;;;;;;4881108;29;20411;-81
2023/05/31 05:20:54;;;;;;;77.37;16.47;;;16.50;26.60;;;;;;4882740;29;20594;-80
2023/05/31 05:23:19;;;;;;;77.30;15.40;;;16.60;22.40;;;;;;4882128;29;20415;-81
2023/05/31 05:25:45;;;;;;;79.43;15.17;;;16.60;22.70;;;;;;4880945;29;20225;-80
2023/05/31 05:28:11;;;;;;;76.70;16.37;;;16.50;25.40;;;;;;4883178;29;20250;-81
2023/05/31 05:30:37;;;;;;;77.43;15.20;;;16.40;29.90;;;;;;4885329;29;20197;-81
2023/05/31 05:33:04;;;;;;;75.13;15.63;;;16.40;30.90;;;;;;4883926;29;20190;-81
2023/05/31 05:35:30;;;;;;;75.70;14.67;;;16.40;28.90;;;;;;4883496;29;20495;-81
2023/05/31 05:37:57;;;;;;;75.47;12.70;;;16.40;30.00;;;;;;4881918;29;20474;-81
2023/05/31 05:40:23;;;;;;;76.53;14.73;;;16.40;34.70;;;;;;4883619;29;20246;-81
2023/05/31 05:42:49;;;;;;;76.20;11.90;;;16.40;33.60;;;;;;4883289;29;20412;-81
2023/05/31 05:45:15;;;;;;;76.23;14.03;;;16.40;41.00;;;;;;4881698;29;20411;-81
2023/05/31 05:47:44;;;;;;;77.83;12.03;;;16.30;40.80;;;;;;4881218;29;21055;-81
2023/05/31 05:50:11;;;;;;;80.90;12.30;;;16.30;43.60;;;;;;4881653;29;20438;-81
2023/05/31 05:52:37;;;;;;;77.40;11.23;;;16.30;41.30;;;;;;4881446;29;20420;-81
2023/05/31 05:55:03;;;;;;;74.67;10.80;;;16.30;43.00;;;;;;4882897;29;20420;-81
2023/05/31 05:57:29;;;;;;;76.90;10.60;;;16.30;42.80;;;;;;4881806;29;20579;-81
2023/05/31 05:59:56;;;;;;;75.47;10.93;;;16.30;40.40;;;;;;4883204;29;20468;-81
2023/05/31 06:02:22;;;;;;;73.97;10.40;;;16.40;37.30;;;;;;4884620;29;20403;-81
2023/05/31 06:04:49;;;;;;;73.30;10.53;;;16.50;33.60;;;;;;4884980;29;20487;-81
2023/05/31 06:07:16;;;;;;;80.03;10.20;;;16.50;34.50;;;;;;4884648;29;20477;-81
2023/05/31 06:09:45;;;;;;;72.70;10.30;;;16.50;32.60;;;;;;4886559;29;20401;-81
2023/05/31 06:12:12;;;;;;;71.33;9.83;;;16.50;32.40;;;;;;4885985;29;20453;-82
2023/05/31 06:14:38;;;;;;;78.80;11.23;;;16.60;34.00;;;;;;4884895;29;20419;-82
2023/05/31 06:17:04;;;;;;;81.57;10.77;;;16.60;35.80;;;;;;4886358;29;20469;-82
2023/05/31 06:19:33;;;;;;;99.10;13.20;;;16.60;31.30;;;;;;4886610;29;20247;-81
2023/05/31 06:21:59;;;;;;;83.20;10.77;;;16.60;31.40;;;;;;4885167;29;20434;-81
2023/05/31 06:24:25;;;;;;;115.37;13.17;;;16.60;31.30;;;;;;4885988;29;20411;-81
2023/05/31 06:26:51;;;;;;;80.10;10.20;;;16.70;35.80;;;;;;4885580;29;20522;-81
2023/05/31 06:29:16;;;;;;;74.40;10.63;;;16.60;38.60;;;;;;4884693;29;20215;-81
2023/05/31 06:31:42;;;;;;;79.70;11.47;;;16.70;40.20;;;;;;4886324;29;20199;-81
2023/05/31 06:34:09;;;;;;;81.00;12.03;;;16.60;42.60;;;;;;4885483;29;20201;-81
2023/05/31 06:36:38;;;;;;;80.20;10.53;;;16.60;42.00;;;;;;4883605;29;20255;-81
2023/05/31 06:39:04;;;;;;;71.40;10.30;;;16.70;41.40;;;;;;4884146;29;20416;-81
2023/05/31 06:41:32;;;;;;;74.77;9.80;;;16.70;46.20;;;;;;4885295;29;20471;-81
2023/05/31 06:43:57;;;;;;;76.17;10.53;;;16.70;45.10;;;;;;4883639;29;20186;-81
2023/05/31 06:46:23;;;;;;;74.00;10.50;;;16.80;44.10;;;;;;4884326;29;20963;-81
2023/05/31 06:48:49;;;;;;;79.07;10.50;;;16.80;40.40;;;;;;4884960;29;20178;-80
2023/05/31 06:51:19;;;;;;;71.10;8.90;;;16.80;50.80;;;;;;4885501;29;20330;-81
2023/05/31 06:56:36;;;;;;;80.70;9.95;;;16.90;41.20;;;;;;4884511;29;20419;-80
2023/05/31 06:59:02;;;;;;;74.60;10.30;;;16.90;42.40;;;;;;4883881;29;20175;-80
2023/05/31 07:01:28;;;;;;;71.90;8.50;;;17.00;43.60;;;;;;4884353;29;20459;-81
2023/05/31 07:03:54;;;;;;;75.30;9.20;;;17.00;42.30;;;;;;4884653;29;20182;-80
2023/05/31 07:06:20;;;;;;;114.73;12.17;;;17.10;36.00;;;;;;4885583;29;20427;-81
2023/05/31 07:08:46;;;;;;;93.60;11.43;;;17.10;34.20;;;;;;4883567;29;20246;-80
2023/05/31 07:11:12;;;;;;;77.77;9.30;;;17.20;30.50;;;;;;4884721;29;20250;-81
2023/05/31 07:13:38;;;;;;;73.43;8.57;;;17.20;34.50;;;;;;4881996;29;20428;-81
2023/05/31 07:16:03;;;;;;;72.93;8.30;;;17.30;28.50;;;;;;4884931;29;20507;-81
2023/05/31 07:18:30;;;;;;;73.93;10.87;;;17.40;28.40;;;;;;4884438;29;20166;-81
2023/05/31 07:20:56;;;;;;;75.90;9.20;;;17.40;16.90;;;;;;4888199;29;20194;-80
2023/05/31 07:23:24;;;;;;;71.97;9.17;;;17.40;16.30;;;;;;4884871;29;20431;-80
2023/05/31 07:25:50;;;;;;;72.30;10.13;;;17.50;3.80;;;;;;4882386;29;20416;-80
2023/05/31 07:28:15;;;;;;;72.50;8.80;;;17.60;1.00;;;;;;4882705;29;20441;-81
2023/05/31 07:30:41;;;;;;;72.50;9.77;;;17.80;1.00;;;;;;4884316;29;20205;-80
2023/05/31 07:33:06;;;;;;;74.17;10.30;;;17.80;1.00;;;;;;4883976;29;20171;-81
2023/05/31 07:35:48;;;;;;;72.03;10.03;;;17.90;1.00;;;;;;4883546;29;20197;-81
2023/05/31 07:38:14;;;;;;;73.37;8.97;;;17.90;1.00;;;;;;4884690;29;20162;-81
2023/05/31 07:40:40;;;;;;;69.67;8.90;;;18.00;1.00;;;;;;4884580;29;20911;-80
2023/05/31 07:43:06;;;;;;;79.10;10.10;;;18.10;1.00;;;;;;4882894;29;20209;-80
2023/05/31 07:45:31;;;;;;;90.07;12.87;;;18.30;1.00;;;;;;4883030;29;20175;-80
2023/05/31 07:47:57;;;;;;;93.67;12.07;;;18.40;1.00;;;;;;4884262;29;20563;-80
2023/05/31 07:50:23;;;;;;;113.90;12.20;;;18.40;1.00;;;;;;4883591;29;20170;-80
2023/05/31 07:52:49;;;;;;;131.80;18.83;;;18.40;1.00;;;;;;4882592;29;20174;-80
2023/05/31 07:55:17;;;;;;;313.10;34.93;;;18.60;1.00;;;;;;4883150;29;20551;-80
2023/05/31 07:57:43;;;;;;;78.13;8.60;;;18.60;1.00;;;;;;4882949;29;20436;-80
2023/05/31 08:00:13;;;;;;;72.83;7.90;;;18.70;1.00;;;;;;4883537;29;20444;-80
2023/05/31 08:02:40;;;;;;;73.13;10.23;;;18.70;1.00;;;;;;4884532;29;20171;-80
2023/05/31 08:05:07;;;;;;;75.67;8.33;;;18.70;1.00;;;;;;4884519;29;20845;-80
2023/05/31 08:07:33;;;;;;;69.93;8.60;;;18.60;1.00;;;;;;4884303;29;20439;-82
2023/05/31 08:09:59;;;;;;;71.10;8.30;;;18.70;1.00;;;;;;4884860;29;20400;-81
2023/05/31 08:12:24;;;;;;;70.37;8.77;;;18.80;1.00;;;;;;4883514;29;20941;-82
2023/05/31 08:14:50;;;;;;;71.33;10.67;;;18.90;1.00;;;;;;4885356;29;20188;-81
2023/05/31 08:17:16;;;;;;;74.17;9.70;;;19.00;1.00;;;;;;4884529;29;20187;-81
2023/05/31 08:19:41;;;;;;;72.10;8.83;;;19.20;1.00;;;;;;4883530;29;20177;-81
2023/05/31 08:22:07;;;;;;;71.23;7.50;;;19.20;1.00;;;;;;4882154;29;20181;-81
2023/05/31 08:24:36;;;;;;;73.77;8.37;;;19.30;1.00;;;;;;4883990;29;20230;-81
2023/05/31 08:27:05;;;;;;;73.90;8.10;;;19.30;1.00;;;;;;4883108;29;20841;-81
2023/05/31 08:29:31;;;;;;;69.40;6.30;;;19.40;1.00;;;;;;4882008;29;20455;-80
2023/05/31 08:31:56;;;;;;;72.30;6.70;;;19.50;1.00;;;;;;4884153;29;20454;-80
2023/05/31 08:34:22;;;;;;;70.83;6.53;;;19.50;1.00;;;;;;4884133;29;20196;-80
2023/05/31 08:36:51;;;;;;;69.80;6.80;;;19.60;1.00;;;;;;4882583;29;20198;-80
2023/05/31 08:39:17;;;;;;;71.63;7.50;;;19.70;1.00;;;;;;4881738;29;20547;-80
2023/05/31 08:42:05;;;;;;;76.83;7.47;;;19.70;1.00;;;;;;4883490;29;20407;-80
2023/05/31 08:44:31;;;;;;;71.23;6.67;;;19.80;1.00;;;;;;4882639;29;20920;-80
2023/05/31 08:47:26;;;;;;;72.53;8.13;;;20.10;1.00;;;;;;4882509;29;20555;-80
2023/05/31 08:49:54;;;;;;;71.57;8.20;;;20.30;1.00;;;;;;4883669;29;20399;-80
2023/05/31 08:52:21;;;;;;;152.40;14.40;;;20.50;1.00;;;;;;4882636;29;20455;-80
2023/05/31 08:54:49;;;;;;;76.50;6.20;;;20.60;1.00;;;;;;4882848;29;20415;-80
2023/05/31 08:57:15;;;;;;;75.20;5.70;;;20.70;1.00;;;;;;4882031;29;20441;-80
2023/05/31 08:59:42;;;;;;;76.63;5.03;;;20.70;1.00;;;;;;4884530;29;20899;-80
2023/05/31 09:02:10;;;;;;;69.50;5.33;;;20.60;1.00;;;;;;4884749;29;20425;-80
2023/05/31 09:04:36;;;;;;;69.47;5.50;;;20.60;1.00;;;;;;4883021;29;20414;-80
2023/05/31 09:07:01;;;;;;;72.57;4.70;;;20.70;1.00;;;;;;4885429;29;20969;-79
2023/05/31 09:09:27;;;;;;;69.97;4.20;;;20.80;1.00;;;;;;4884582;29;20251;-79
2023/05/31 09:11:53;;;;;;;69.97;4.30;;;20.90;1.00;;;;;;4882910;29;20559;-80
2023/05/31 09:14:19;;;;;;;69.27;4.43;;;20.90;1.00;;;;;;4899674;29;20175;-80
2023/05/31 09:16:46;;;;;;;69.57;4.40;;;21.00;1.00;;;;;;4883422;29;20437;-80
2023/05/31 09:19:11;;;;;;;68.57;5.43;;;21.00;1.00;;;;;;4882952;29;20257;-80
2023/05/31 09:21:39;;;;;;;68.40;4.70;;;21.20;1.00;;;;;;4883977;29;20865;-79
2023/05/31 09:24:05;;;;;;;70.23;4.80;;;21.30;1.00;;;;;;4883647;29;20193;-80
2023/05/31 09:26:34;;;;;;;69.87;4.90;;;21.50;1.00;;;;;;4882946;29;20440;-79
2023/05/31 09:29:00;;;;;;;69.13;3.80;;;21.70;1.00;;;;;;4884415;29;20408;-81
2023/05/31 09:31:27;;;;;;;67.90;3.67;;;21.80;1.00;;;;;;4884686;29;20458;-80
2023/05/31 09:33:56;;;;;;;68.77;3.50;;;21.80;1.00;;;;;;4881848;29;20617;-80
2023/05/31 09:36:29;;;;;;;68.80;4.10;;;21.80;1.00;;;;;;4884789;29;20431;-80
2023/05/31 09:39:10;;;;;;;69.23;4.17;;;21.80;1.00;;;;;;4903317;29;20509;-80
2023/05/31 09:41:36;;;;;;;72.07;4.07;;;22.00;1.00;;;;;;4888360;29;20391;-80
2023/05/31 09:44:10;;;;;;;69.43;3.93;;;22.20;1.00;;;;;;4888049;29;20425;-80
2023/05/31 09:47:06;;;;;;;70.77;4.03;;;22.40;1.00;;;;;;4948686;23;20306;-84
2023/05/31 09:54:13;;;;;;;68.27;4.37;;;22.70;1.00;;;;;;4856347;29;20416;-84
2023/05/31 10:07:29;;;;;;;72.20;6.90;;;23.20;1.00;;;;;;4830442;29;20603;-84
2023/05/31 10:09:55;;;;;;;72.13;5.93;;;23.10;1.00;;;;;;4829553;29;20478;-84
2023/05/31 10:13:25;;;;;;;;;;;;;;;;;;;;;
2023/05/31 10:19:48;;;;;;;74.83;11.57;;;23.50;1.00;;;;;;4826861;29;20394;-84
2023/05/31 10:26:13;;;;;;;72.23;6.93;;;23.80;1.00;;;;;;4810347;29;20512;-85
2023/05/31 10:29:45;;;;;;;70.40;6.50;;;24.20;1.00;;;;;;4819085;29;20422;-85
2023/05/31 10:36:49;;;;;;;;;;;;;;;;;;;;;
2023/05/31 10:43:35;;;;;;;71.60;7.67;;;24.50;1.00;;;;;;4840081;29;20483;-83
2023/05/31 10:49:15;;;;;;;69.43;3.80;;;24.80;1.00;;;;;;4660960;27;21008;-83
2023/05/31 10:52:56;;;;;;;71.03;4.30;;;25.10;1.00;;;;;;4887045;29;20464;-83
2023/05/31 11:08:04;;;;;;;;;;;;;;;;;;;;;
2023/05/31 11:11:12;;;;;;;71.93;3.30;;;26.00;1.00;;;;;;4807869;29;20880;-82
2023/05/31 11:14:27;;;;;;;;;;;;;;;;;;;;;
2023/05/31 11:17:56;;;;;;;;;;;;;;;;;;;;;
2023/05/31 11:21:45;;;;;;;;;;;;;;;;;;;;;
2023/05/31 11:28:40;;;;;;;68.90;3.10;;;26.40;1.00;;;;;;4702580;30;20863;-82
2023/05/31 11:32:15;;;;;;;;;;;;;;;;;;;;;
2023/05/31 11:46:07;;;;;;;71.90;3.40;;;26.60;1.00;;;;;;4755860;30;20913;-82
2023/05/31 12:03:14;;;;;;;;;;;;;;;;;;;;;
2023/05/31 12:11:51;;;;;;;69.07;3.13;;;26.90;1.00;;;;;;3184461;27;20484;-83
2023/05/31 12:14:28;;;;;;;69.77;3.10;;;26.70;1.00;;;;;;4809455;29;20480;-82
2023/05/31 12:17:33;;;;;;;69.80;3.30;;;26.50;1.00;;;;;;4808841;29;20492;-82
2023/05/31 12:20:02;;;;;;;68.90;3.27;;;26.90;1.00;;;;;;4799640;29;20407;-82
2023/05/31 12:22:48;;;;;;;74.00;2.93;;;27.10;1.00;;;;;;4809502;29;20429;-82
2023/05/31 12:25:14;;;;;;;69.50;3.40;;;27.40;1.00;;;;;;4866403;29;20472;-83
2023/05/31 12:27:50;;;;;;;;;;;;;;;;;;;;;
2023/05/31 12:31:02;;;;;;;;;;;;;;;;;;;;;
2023/05/31 12:34:17;;;;;;;69.07;2.97;;;27.00;1.00;;;;;;4864656;29;20523;-83
2023/05/31 12:37:23;;;;;;;70.57;3.13;;;26.90;1.00;;;;;;4865569;29;20424;-83
2023/05/31 12:40:48;;;;;;;;;;;;;;;;;;;;;
2023/05/31 12:43:48;;;;;;;72.30;3.77;;;27.00;1.00;;;;;;4865161;29;20412;-82
2023/05/31 12:46:40;;;;;;;70.10;3.50;;;27.10;1.00;;;;;;4861984;29;20436;-82
2023/05/31 12:49:42;;;;;;;70.20;3.07;;;27.00;1.00;;;;;;4863837;29;20409;-82
2023/05/31 12:52:49;;;;;;;;;;;;;;;;;;;;;
2023/05/31 12:56:16;;;;;;;71.63;3.70;;;27.20;1.00;;;;;;4839944;29;20420;-81
2023/05/31 12:59:25;;;;;;;70.23;3.27;;;27.30;1.00;;;;;;4863824;29;20901;-81
2023/05/31 13:02:29;;;;;;;70.37;3.07;;;27.20;1.00;;;;;;4861214;29;20939;-81
2023/05/31 13:04:58;;;;;;;68.50;3.23;;;27.30;1.00;;;;;;4844911;29;20437;-82
2023/05/31 13:26:06;;;;;;;69.90;3.07;;;27.40;1.00;;;;;;4881058;29;20486;-82
2023/05/31 13:29:00;;;;;;;;;;;;;;;;;;;;;
2023/05/31 13:32:27;;;;;;;;;;;;;;;;;;;;;
2023/05/31 13:35:41;;;;;;;68.70;3.53;;;27.30;1.00;;;;;;4865681;29;20846;-83
2023/05/31 13:39:08;;;;;;;;;;;;;;;;;;;;;
2023/05/31 13:46:01;;;;;;;71.73;4.47;;;27.50;1.00;;;;;;4866454;29;20726;-84
2023/05/31 13:49:46;;;;;;;70.33;3.90;;;27.10;1.00;;;;;;4848314;29;20953;-83
2023/05/31 13:52:51;;;;;;;71.10;4.20;;;27.20;1.00;;;;;;4844932;29;20563;-83
2023/05/31 13:58:44;;;;;;;72.40;4.67;;;27.40;1.00;;;;;;4847918;29;20397;-83
2023/05/31 14:01:33;;;;;;;73.17;4.10;;;27.20;1.00;;;;;;4846443;29;21034;-83
2023/05/31 14:08:27;;;;;;;;;;;;;;;;;;;;;
2023/05/31 14:25:55;;;;;;;69.50;3.80;;;27.70;1.00;;;;;;4706881;30;21049;-83
2023/05/31 14:29:09;;;;;;;;;;;;;;;;;;;;;
2023/05/31 14:32:18;;;;;;;;;;;;;;;;;;;;;
2023/05/31 14:38:47;;;;;;;70.20;4.60;;;27.60;1.00;;;;;;4735638;30;20442;-84
2023/05/31 14:41:26;;;;;;;71.47;4.10;;;27.60;1.00;;;;;;4726937;30;20485;-83
2023/05/31 14:44:32;;;;;;;72.90;3.93;;;27.40;1.00;;;;;;4724175;30;20438;-83
2023/05/31 14:51:02;;;;;;;71.30;4.60;;;27.60;1.00;;;;;;4759827;30;20392;-84
2023/05/31 14:53:51;;;;;;;71.03;4.40;;;27.40;1.00;;;;;;4759537;30;20480;-83
2023/05/31 14:56:58;;;;;;;73.37;4.60;;;27.40;1.00;;;;;;4745097;30;20472;-84
2023/05/31 14:59:30;;;;;;;73.63;4.33;;;27.30;1.00;;;;;;4812242;29;20420;-83
2023/05/31 15:02:00;;;;;;;75.27;4.23;;;27.30;1.00;;;;;;4851269;29;20408;-84
2023/05/31 15:04:28;;;;;;;72.17;4.10;;;27.40;1.00;;;;;;4850186;29;20470;-84
2023/05/31 15:07:03;;;;;;;73.67;4.93;;;27.50;1.00;;;;;;4847444;29;20478;-83
2023/05/31 15:09:29;;;;;;;78.03;4.60;;;27.50;1.00;;;;;;4858638;29;20445;-82
2023/05/31 15:12:17;;;;;;;69.53;4.00;;;27.60;1.00;;;;;;4867121;29;20485;-83
2023/05/31 15:14:51;;;;;;;69.50;3.27;;;28.00;1.00;;;;;;4868639;29;20404;-83
2023/05/31 15:17:26;;;;;;;71.03;3.70;;;28.30;1.00;;;;;;4867051;29;20503;-84
2023/05/31 15:20:29;;;;;;;70.60;3.70;;;28.40;1.00;;;;;;4869507;29;20401;-82
2023/05/31 15:23:13;;;;;;;69.00;3.37;;;28.70;1.00;;;;;;4857774;29;20481;-82
2023/05/31 15:25:58;;;;;;;70.67;3.70;;;29.30;1.00;;;;;;4867333;29;20503;-83
2023/05/31 15:28:32;;;;;;;72.90;3.70;;;29.60;1.00;;;;;;4934868;23;20389;-83
2023/05/31 15:31:33;;;;;;;69.30;3.47;;;29.70;1.00;;;;;;4953908;23;20539;-83
2023/05/31 15:34:04;;;;;;;70.70;3.47;;;29.90;1.00;;;;;;4887843;29;20408;-83
2023/05/31 15:36:42;;;;;;;69.00;3.13;;;30.10;1.00;;;;;;4887500;29;20430;-83
2023/05/31 15:39:35;;;;;;;73.80;3.67;;;30.20;1.00;;;;;;4885803;29;20472;-85
2023/05/31 15:42:03;;;;;;;70.67;3.93;;;30.50;1.00;;;;;;4888776;29;20411;-82
2023/05/31 15:44:49;;;;;;;72.97;4.20;;;30.60;1.00;;;;;;4889104;29;20467;-84
2023/05/31 15:47:15;;;;;;;71.47;4.03;;;30.40;1.00;;;;;;4950122;23;20495;-85
2023/05/31 15:49:41;;;;;;;73.77;4.00;;;29.80;1.00;;;;;;4893163;29;20415;-87
2023/05/31 15:52:07;;;;;;;72.30;4.00;;;29.70;1.00;;;;;;4889284;29;20508;-86
2023/05/31 15:54:33;;;;;;;75.67;4.30;;;30.20;1.00;;;;;;4887900;29;20919;-83
2023/05/31 15:56:58;;;;;;;69.10;3.60;;;30.70;1.00;;;;;;4887053;29;20222;-81
2023/05/31 15:59:24;;;;;;;75.17;9.67;;;31.00;1.00;;;;;;4885890;29;20190;-83